Accueil
METAR-TAF:

METAR-TAF

Aéroports :

Aéroport de Guidonia

Guidonia Montecelio, Italie

latitude: 42-00N, longitude: 012-44E, altitude: 88 m

Observation

Le bulletin a été fait il y a 5 heures et 12 minutes, à 17:55 UTC
Vent 2 kt de nord/nord-est
Température 9°C
Humidité 87%
Pression 1005 hPa
Visibilité 10 km ou plus
Nuages épars à une hauteur de 3000 ft

METAR: LIRG 031755Z 03002KT 9999 SCT030 09/07 Q1005 RMK SCT MON NE CLD CIME NC VIS MIN 9999 BLU

Heure: 00:07 (23:07 UTC)

Prévision

Le bulletin a été fait il y a 9 heures et 7 minutes, à 14:00 UTC
Prévision valable du 03 à 15 UTC au 03 à 24 UTC
Vent 3 kt de direction variable
Visibilité 10 km ou plus
Nuages épars à une hauteur de 3000 ft

TAF: LIRG 031400Z 0315/0324 VRB03KT 9999 SCT030

Observations et prévisions météorologiques de plus de 4000 aéroports (messages METAR et TAF).

Les stations disponibles sont représentées par des disques jaunes et rouges sur la carte.

Passer la souris dessus pour voir le nom de la station.

Cliquer dessus pour voir les observations et prévisions météorologiques.

Pour changer de carte: cliquez sur les boutons verts avec une croix noire pour zoomer, sur le bouton vert avec un tiret pour effectuer un zoom arrière, ou sur les flèches vertes pour les cartes adjacentes.


METAR-TAF: